createdAt,value
2022-11-15T00:01:18.179Z,4.20
2022-11-15T00:03:46.060Z,4.20
2022-11-15T00:06:13.755Z,4.30
2022-11-15T00:08:41.205Z,4.30
2022-11-15T00:11:12.281Z,4.40
2022-11-15T00:13:39.666Z,4.40
2022-11-15T00:16:07.159Z,4.40
2022-11-15T00:18:34.545Z,4.50
2022-11-15T00:21:07.786Z,4.60
2022-11-15T00:23:35.316Z,4.70
2022-11-15T00:26:02.940Z,4.70
2022-11-15T00:28:30.735Z,4.80
2022-11-15T00:31:03.195Z,4.80
2022-11-15T00:33:31.671Z,4.80
2022-11-15T00:36:05.569Z,4.80
2022-11-15T00:38:38.749Z,4.80
2022-11-15T00:41:09.638Z,4.90
2022-11-15T00:43:37.901Z,4.90
2022-11-15T00:46:05.400Z,4.80
2022-11-15T00:48:32.920Z,4.90
2022-11-15T00:51:00.342Z,4.90
2022-11-15T00:53:28.225Z,4.90
2022-11-15T00:55:55.815Z,4.90
2022-11-15T00:58:23.209Z,4.80
2022-11-15T01:00:50.712Z,4.90
2022-11-15T01:03:18.163Z,4.90
2022-11-15T01:05:45.608Z,4.80
2022-11-15T01:08:17.230Z,4.80
2022-11-15T01:10:44.733Z,4.90
2022-11-15T01:13:12.277Z,4.90
2022-11-15T01:15:42.957Z,4.80
2022-11-15T01:18:10.493Z,4.80
2022-11-15T01:20:44.915Z,4.80
2022-11-15T01:23:12.354Z,4.80
2022-11-15T01:25:39.836Z,4.80
2022-11-15T01:28:07.490Z,4.90
2022-11-15T01:30:34.900Z,5.00
2022-11-15T01:33:02.274Z,4.90
2022-11-15T01:35:29.646Z,5.00
2022-11-15T01:37:57.310Z,5.10
2022-11-15T01:40:24.791Z,5.10
2022-11-15T01:42:52.182Z,5.20
2022-11-15T01:45:19.643Z,5.10
2022-11-15T01:47:53.024Z,5.10
2022-11-15T01:50:31.400Z,5.20
2022-11-15T01:52:58.940Z,5.30
2022-11-15T01:55:28.479Z,5.40
2022-11-15T01:58:00.949Z,5.50
2022-11-15T02:00:30.229Z,5.50
2022-11-15T02:02:57.949Z,5.50
2022-11-15T02:05:25.742Z,5.50
2022-11-15T02:07:53.344Z,5.60
2022-11-15T02:10:23.729Z,5.60
2022-11-15T02:12:52.239Z,5.60
2022-11-15T02:15:19.890Z,5.60
2022-11-15T02:17:59.157Z,5.60
2022-11-15T02:20:49.870Z,5.70
2022-11-15T02:23:51.249Z,5.70
2022-11-15T02:26:24.712Z,5.70
2022-11-15T02:29:42.897Z,5.70
2022-11-15T02:32:23.163Z,5.70
2022-11-15T02:35:08.952Z,5.70
2022-11-15T02:37:48.448Z,5.70
2022-11-15T02:40:44.941Z,5.70
2022-11-15T02:43:36.197Z,5.70
2022-11-15T02:46:10.491Z,5.60
2022-11-15T02:48:39.113Z,5.60
2022-11-15T02:51:07.496Z,5.60
2022-11-15T02:53:35.037Z,5.60
2022-11-15T02:56:02.797Z,5.60
2022-11-15T02:58:45.095Z,5.70
2022-11-15T03:01:55.730Z,5.70
2022-11-15T03:04:58.602Z,5.80
2022-11-15T03:08:00.887Z,5.90
2022-11-15T03:11:01.099Z,5.80
2022-11-15T03:13:37.389Z,5.80
2022-11-15T03:16:11.177Z,5.90
2022-11-15T03:18:42.846Z,6.00
2022-11-15T03:21:12.666Z,6.00
2022-11-15T03:23:42.441Z,6.00
2022-11-15T03:26:13.590Z,6.00
2022-11-15T03:28:46.856Z,6.00
2022-11-15T03:31:35.627Z,6.00
2022-11-15T03:34:05.510Z,5.90
2022-11-15T03:36:35.179Z,5.90
2022-11-15T03:39:08.587Z,5.90
2022-11-15T03:41:48.285Z,5.90
2022-11-15T03:44:25.994Z,5.80
2022-11-15T03:46:59.028Z,5.80
2022-11-15T03:49:32.303Z,5.80
2022-11-15T03:52:01.237Z,5.80
2022-11-15T03:54:28.702Z,5.80
2022-11-15T03:56:56.190Z,5.90
2022-11-15T03:59:23.808Z,5.90
2022-11-15T04:01:51.371Z,5.90
2022-11-15T04:04:18.813Z,5.80
2022-11-15T04:06:46.396Z,5.90
2022-11-15T04:09:13.805Z,5.90
2022-11-15T04:11:41.298Z,5.90
2022-11-15T04:14:08.756Z,6.00
2022-11-15T04:16:40.910Z,6.00
2022-11-15T04:19:29.792Z,6.00
2022-11-15T04:22:15.945Z,6.00
2022-11-15T04:24:43.329Z,6.00
2022-11-15T04:27:11.186Z,6.00
2022-11-15T04:29:38.622Z,6.00
2022-11-15T04:32:08.107Z,6.00
2022-11-15T04:34:36.325Z,6.00
2022-11-15T04:37:17.156Z,5.90
2022-11-15T04:39:44.914Z,6.00
2022-11-15T04:42:12.502Z,5.90
2022-11-15T04:44:39.963Z,5.90
2022-11-15T04:47:07.420Z,5.90
2022-11-15T04:49:34.889Z,5.90
2022-11-15T04:52:02.347Z,5.90
2022-11-15T04:54:29.798Z,5.90
2022-11-15T04:56:57.215Z,5.90
2022-11-15T04:59:24.663Z,5.90
2022-11-15T05:01:52.047Z,5.90
2022-11-15T05:04:22.088Z,5.90
2022-11-15T05:06:52.036Z,5.90
2022-11-15T05:09:22.930Z,6.00
2022-11-15T05:11:50.298Z,5.90
2022-11-15T05:14:17.980Z,5.90
2022-11-15T05:16:45.400Z,6.00
2022-11-15T05:19:12.932Z,6.00
2022-11-15T05:21:40.529Z,6.00
2022-11-15T05:24:10.392Z,6.00
2022-11-15T05:26:38.103Z,6.00
2022-11-15T05:29:05.656Z,6.00
2022-11-15T05:31:33.227Z,6.10
2022-11-15T05:34:05.058Z,6.10
2022-11-15T05:36:39.132Z,6.00
2022-11-15T05:39:09.387Z,6.10
2022-11-15T05:41:50.111Z,6.10
2022-11-15T05:44:22.835Z,6.10
2022-11-15T05:46:51.843Z,6.10
2022-11-15T05:49:23.057Z,6.00
2022-11-15T05:51:51.641Z,6.00
2022-11-15T05:54:20.406Z,6.00
2022-11-15T05:56:47.972Z,6.00
2022-11-15T05:59:15.594Z,6.00
2022-11-15T06:01:43.188Z,6.00
2022-11-15T06:04:10.659Z,6.10
2022-11-15T06:06:38.191Z,6.10
2022-11-15T06:09:05.622Z,6.10
2022-11-15T06:11:33.026Z,6.10
2022-11-15T06:14:00.488Z,6.10
2022-11-15T06:16:27.972Z,6.20
2022-11-15T06:18:55.421Z,6.20
2022-11-15T06:21:23.238Z,6.10
2022-11-15T06:23:50.805Z,6.20
2022-11-15T06:26:18.150Z,6.10
2022-11-15T06:28:45.562Z,6.10
2022-11-15T06:31:13.163Z,6.20
2022-11-15T06:33:41.487Z,6.20
2022-11-15T06:36:17.110Z,6.30
2022-11-15T06:38:46.128Z,6.30
2022-11-15T06:41:15.008Z,6.30
2022-11-15T06:43:42.452Z,6.30
2022-11-15T06:46:11.015Z,6.30
2022-11-15T06:48:38.721Z,6.40
2022-11-15T06:51:06.682Z,6.40
2022-11-15T06:53:34.578Z,6.30
2022-11-15T06:56:07.015Z,6.30
2022-11-15T06:58:34.776Z,6.30
2022-11-15T07:01:13.146Z,6.40
2022-11-15T07:03:42.695Z,6.40
2022-11-15T07:06:10.645Z,6.40
2022-11-15T07:08:39.082Z,6.40
2022-11-15T07:11:08.255Z,6.40
2022-11-15T07:13:37.208Z,6.40
2022-11-15T07:16:09.810Z,6.50
2022-11-15T07:18:41.180Z,6.40
2022-11-15T07:21:11.376Z,6.50
2022-11-15T07:23:40.025Z,6.50
2022-11-15T07:26:09.094Z,6.50
2022-11-15T07:28:37.175Z,6.50
2022-11-15T07:31:06.571Z,6.50
2022-11-15T07:33:34.875Z,6.50
2022-11-15T07:36:06.954Z,6.50
2022-11-15T07:38:42.168Z,6.50
2022-11-15T07:41:10.248Z,6.50
2022-11-15T07:43:37.698Z,6.50
2022-11-15T07:46:12.467Z,6.60
2022-11-15T07:48:45.256Z,6.60
2022-11-15T07:51:15.541Z,6.60
2022-11-15T07:53:43.871Z,6.60
2022-11-15T07:56:11.452Z,6.50
2022-11-15T07:58:38.919Z,6.50
2022-11-15T08:01:07.876Z,6.60
2022-11-15T08:03:36.171Z,6.50
2022-11-15T08:06:04.042Z,6.50
2022-11-15T08:08:31.409Z,6.50
2022-11-15T08:10:59.805Z,6.60
2022-11-15T08:13:27.278Z,6.60
2022-11-15T08:16:00.259Z,6.60
2022-11-15T08:18:27.739Z,6.60
2022-11-15T08:20:59.797Z,6.60
2022-11-15T08:23:27.141Z,6.60
2022-11-15T08:25:59.722Z,6.50
2022-11-15T08:28:27.085Z,6.50
2022-11-15T08:30:57.649Z,6.50
2022-11-15T08:33:25.983Z,6.60
2022-11-15T08:35:53.438Z,6.70
2022-11-15T08:38:20.810Z,6.70
2022-11-15T08:40:48.181Z,6.70
2022-11-15T08:43:15.543Z,6.60
2022-11-15T08:45:42.880Z,6.70
2022-11-15T08:48:10.337Z,6.60
2022-11-15T08:50:37.927Z,6.60
2022-11-15T08:53:09.647Z,6.60
2022-11-15T08:55:40.935Z,6.60
2022-11-15T08:58:08.440Z,6.60
2022-11-15T09:00:35.847Z,6.60
2022-11-15T09:03:06.375Z,6.60
2022-11-15T09:05:36.548Z,6.60
2022-11-15T09:08:19.090Z,6.60
2022-11-15T09:10:51.649Z,6.60
2022-11-15T09:13:19.033Z,6.70
2022-11-15T09:15:46.401Z,6.70
2022-11-15T09:18:13.759Z,6.70
2022-11-15T09:20:41.324Z,6.70
2022-11-15T09:23:08.765Z,6.70
2022-11-15T09:25:36.220Z,6.80
2022-11-15T09:28:07.764Z,6.80
2022-11-15T09:30:35.165Z,6.80
2022-11-15T09:33:13.415Z,6.80
2022-11-15T09:35:42.048Z,6.90
2022-11-15T09:38:09.793Z,7.00
2022-11-15T09:40:38.496Z,7.00
2022-11-15T09:43:17.761Z,7.00
2022-11-15T09:46:20.304Z,6.90
2022-11-15T09:48:54.106Z,6.80
2022-11-15T09:51:36.881Z,6.90
2022-11-15T09:54:37.919Z,6.90
2022-11-15T09:57:00.558Z,6.80
2022-11-15T09:59:55.576Z,6.80
2022-11-15T10:02:41.010Z,6.90
2022-11-15T10:05:17.477Z,6.90
2022-11-15T10:08:11.095Z,6.90
2022-11-15T10:13:53.761Z,6.80
2022-11-15T10:16:39.702Z,6.70
2022-11-15T10:19:29.894Z,6.60
2022-11-15T10:22:24.629Z,6.70
2022-11-15T10:25:13.431Z,6.70
2022-11-15T10:27:42.957Z,6.60
2022-11-15T10:30:17.485Z,6.60
2022-11-15T10:32:47.178Z,6.60
2022-11-15T10:35:18.770Z,6.70
2022-11-15T10:37:46.147Z,6.60
2022-11-15T10:40:20.543Z,6.60
2022-11-15T10:42:48.719Z,6.60
2022-11-15T10:45:28.528Z,6.60
2022-11-15T10:48:15.814Z,6.60
2022-11-15T10:50:48.032Z,6.60
2022-11-15T10:53:30.363Z,6.70
2022-11-15T10:56:03.081Z,6.60
2022-11-15T10:58:41.081Z,6.60
2022-11-15T11:01:13.254Z,6.60
2022-11-15T11:03:42.525Z,6.60
2022-11-15T11:06:18.927Z,6.80
2022-11-15T11:09:06.016Z,6.70
2022-11-15T11:11:46.852Z,6.80
2022-11-15T11:14:21.945Z,6.80
2022-11-15T11:16:54.067Z,6.90
2022-11-15T11:19:45.444Z,7.00
2022-11-15T11:22:48.399Z,6.80
2022-11-15T11:25:21.675Z,6.70
2022-11-15T11:28:17.913Z,6.80
2022-11-15T11:31:06.891Z,6.70
2022-11-15T11:33:56.223Z,6.70
2022-11-15T11:36:37.845Z,6.80
2022-11-15T11:39:35.674Z,6.80
2022-11-15T11:42:30.495Z,6.70
2022-11-15T11:45:14.722Z,6.70
2022-11-15T11:48:04.611Z,6.70
2022-11-15T11:50:33.418Z,6.70
2022-11-15T11:53:15.466Z,6.70
2022-11-15T11:55:51.027Z,6.70
2022-11-15T11:58:29.560Z,6.70
2022-11-15T12:01:15.193Z,6.80
2022-11-15T12:03:53.123Z,6.80
2022-11-15T12:06:49.317Z,6.80
2022-11-15T12:09:19.201Z,6.70
2022-11-15T12:11:53.267Z,6.70
2022-11-15T12:14:38.760Z,6.80
2022-11-15T12:17:06.219Z,6.90
2022-11-15T12:19:33.998Z,6.90
2022-11-15T12:22:07.025Z,6.90
2022-11-15T12:24:59.807Z,6.90
2022-11-15T12:27:56.745Z,6.90
2022-11-15T12:30:26.553Z,6.90
2022-11-15T12:33:02.394Z,6.90
2022-11-15T12:35:42.131Z,6.90
2022-11-15T12:38:13.846Z,6.90
2022-11-15T12:41:27.307Z,6.90
2022-11-15T12:43:56.083Z,6.90
2022-11-15T12:46:32.313Z,6.90
2022-11-15T12:49:09.077Z,7.00
2022-11-15T12:51:48.062Z,7.00
2022-11-15T12:54:35.757Z,7.00
2022-11-15T12:57:08.371Z,7.00
2022-11-15T12:59:56.554Z,7.00
2022-11-15T13:02:57.002Z,7.00
2022-11-15T13:05:37.191Z,6.90
2022-11-15T13:08:04.648Z,6.90
2022-11-15T13:10:34.243Z,6.90
2022-11-15T13:13:09.372Z,6.90
2022-11-15T13:15:41.277Z,6.90
2022-11-15T13:18:39.060Z,6.90
2022-11-15T13:21:42.381Z,6.90
2022-11-15T13:24:14.816Z,6.90
2022-11-15T13:26:42.371Z,7.00
2022-11-15T13:29:20.911Z,6.90
2022-11-15T13:31:49.006Z,6.90
2022-11-15T13:34:44.113Z,7.00
2022-11-15T13:37:04.313Z,7.00
2022-11-15T13:39:34.881Z,7.10
2022-11-15T13:42:03.422Z,7.00
2022-11-15T13:44:33.618Z,7.00
2022-11-15T13:47:14.032Z,7.00
2022-11-15T13:49:41.947Z,7.00
2022-11-15T13:52:15.806Z,7.00
2022-11-15T13:55:09.954Z,7.00
2022-11-15T13:57:49.292Z,7.00
2022-11-15T14:00:41.778Z,7.00
2022-11-15T14:03:15.481Z,7.10
2022-11-15T14:05:43.481Z,7.10
2022-11-15T14:08:24.885Z,7.00
2022-11-15T14:11:08.978Z,7.10
2022-11-15T14:13:36.791Z,7.00
2022-11-15T14:16:21.491Z,7.00
2022-11-15T14:18:51.242Z,7.00
2022-11-15T14:21:20.407Z,7.00
2022-11-15T14:23:47.825Z,7.10
2022-11-15T14:26:35.364Z,7.10
2022-11-15T14:29:27.172Z,7.10
2022-11-15T14:32:06.535Z,7.00
2022-11-15T14:34:34.369Z,7.00
2022-11-15T14:37:01.786Z,7.00
2022-11-15T21:42:42.773Z,4.80
2022-11-15T21:45:10.725Z,4.90
2022-11-15T21:47:41.969Z,4.90
2022-11-15T21:50:12.071Z,4.90
2022-11-15T21:52:40.896Z,4.90
2022-11-15T21:55:09.092Z,4.80
2022-11-15T21:57:36.521Z,4.90
2022-11-15T22:00:23.922Z,4.80
2022-11-15T22:02:51.337Z,4.90
2022-11-15T22:05:18.753Z,4.80
2022-11-15T22:07:46.157Z,4.90
2022-11-15T22:10:13.641Z,4.80
2022-11-15T22:12:41.195Z,4.90
2022-11-15T22:15:08.871Z,4.90
2022-11-15T22:17:54.783Z,4.90
2022-11-15T22:20:43.572Z,4.90
2022-11-15T22:23:10.396Z,4.80
2022-11-15T22:25:37.894Z,4.90
2022-11-15T22:28:05.487Z,4.90
2022-11-15T22:30:32.994Z,4.90
2022-11-15T22:33:00.456Z,5.00
2022-11-15T22:35:27.926Z,5.00
2022-11-15T22:37:55.428Z,5.10
2022-11-15T22:40:22.892Z,5.10
2022-11-15T22:42:50.348Z,5.10
2022-11-15T22:45:17.868Z,5.20
2022-11-15T22:47:45.305Z,5.10
2022-11-15T22:50:12.816Z,5.20
2022-11-15T22:52:40.328Z,5.20
2022-11-15T22:55:08.287Z,5.20
2022-11-15T22:57:38.345Z,5.10
2022-11-15T23:00:12.450Z,5.10
2022-11-15T23:02:39.910Z,5.20
2022-11-15T23:05:07.764Z,5.30
2022-11-15T23:07:35.364Z,5.30
2022-11-15T23:10:21.283Z,5.30
2022-11-15T23:13:07.086Z,5.40
2022-11-15T23:15:52.960Z,5.40
2022-11-15T23:18:20.509Z,5.40
2022-11-15T23:20:47.994Z,5.40
2022-11-15T23:23:15.504Z,5.40
2022-11-15T23:25:42.967Z,5.40
2022-11-15T23:28:10.396Z,5.40
2022-11-15T23:30:57.359Z,5.50
